PWSweather.com
Personal Weather Stations
Station Observations
BREAKEY01
Lévis, Breakeyville, QC G0S 1E1

LévisBreakeyville, QC G0S 1E1

Lat: 46.681, Lon: -71.224

Elevation: 328

Station Type: Davis Vantage Pro2

http://www.meteobreakey.webou.net/topic/index.php

Latest ConditionsUpdated 6:12:03 AM EDT Tuesday, Apr 28, 2015
Currently Today's Max Today's Min Today's Average
Temperature 41.4°F5.2°C 44.8°F7.1°C 41.4°F5.2°C 43.2°F6.2°C
Dew Point 39.0°F3.9°C 40.3°F4.6°C 38.8°F3.8°C 39.5°F4.2°C
Winds 10.1 mph E16.3 kmh E 15.0 mph SE24.1 kmh SE - 10.9 mph 17.5 kmh
Wind Gusts 8.1 mph13.0 kmh 19.9 mph32.0 kmh - -
Humidity 91% 92% 83% 87%
Pressure 29.89 in1012.2 mb 29.89 in1012.2 mb 29.83 in1010.2 mb -
Hour Temp Dew Point Humidity Winds Wind Gusts Pressure Precip Precip Rate Daily Precip Total
06:12 AM 41.4°F5.2°C 39.0°F3.9°C 91% 10.1 mph E16.3 kmh E 8.1 mph13.0 kmh 29.89 in1012.2 mb - 0.00 in0.0 mm 0.00 in0.0 mm
06:07 AM 41.4°F5.2°C 39.0°F3.9°C 91% 8.9 mph E14.3 kmh E 8.9 mph14.3 kmh 29.88 in1011.9 mb - 0.00 in0.0 mm 0.00 in0.0 mm
06:02 AM 41.4°F5.2°C 39.0°F3.9°C 91% 8.9 mph E14.3 kmh E 8.9 mph14.3 kmh 29.88 in1011.9 mb - 0.00 in0.0 mm 0.00 in0.0 mm
05:57 AM 41.4°F5.2°C 39.2°F4.0°C 92% 10.1 mph ENE16.3 kmh ENE 10.1 mph16.3 kmh 29.88 in1011.9 mb - 0.00 in0.0 mm 0.00 in0.0 mm
05:52 AM 41.4°F5.2°C 39.2°F4.0°C 92% 11.0 mph E17.7 kmh E 12.1 mph19.5 kmh 29.88 in1011.9 mb - 0.00 in0.0 mm 0.00 in0.0 mm
05:47 AM 41.4°F5.2°C 39.0°F3.9°C 91% 10.1 mph ENE16.3 kmh ENE 13.0 mph20.9 kmh 29.88 in1011.9 mb - 0.00 in0.0 mm 0.00 in0.0 mm
05:42 AM 41.4°F5.2°C 39.0°F3.9°C 91% 8.9 mph ENE14.3 kmh ENE 8.9 mph14.3 kmh 29.88 in1011.9 mb - 0.00 in0.0 mm 0.00 in0.0 mm
05:37 AM 41.4°F5.2°C 39.0°F3.9°C 91% 10.1 mph E16.3 kmh E 10.1 mph16.3 kmh 29.88 in1011.9 mb - 0.00 in0.0 mm 0.00 in0.0 mm
05:32 AM 41.4°F5.2°C 39.0°F3.9°C 91% 10.1 mph ENE16.3 kmh ENE 8.9 mph14.3 kmh 29.88 in1011.9 mb - 0.00 in0.0 mm 0.00 in0.0 mm
05:27 AM 41.4°F5.2°C 39.0°F3.9°C 91% 10.1 mph ENE16.3 kmh ENE 17.0 mph27.4 kmh 29.87 in1011.5 mb - 0.00 in0.0 mm 0.00 in0.0 mm
05:22 AM 41.4°F5.2°C 39.0°F3.9°C 91% 11.0 mph ENE17.7 kmh ENE 8.1 mph13.0 kmh 29.88 in1011.9 mb - 0.00 in0.0 mm 0.00 in0.0 mm
05:17 AM 41.5°F5.3°C 38.8°F3.8°C 90% 11.0 mph NE17.7 kmh NE 10.1 mph16.3 kmh 29.88 in1011.9 mb - 0.00 in0.0 mm 0.00 in0.0 mm
05:12 AM 41.7°F5.4°C 39.0°F3.9°C 90% 11.0 mph ENE17.7 kmh ENE 8.9 mph14.3 kmh 29.88 in1011.9 mb - 0.00 in0.0 mm 0.00 in0.0 mm
05:07 AM 41.9°F5.5°C 38.8°F3.8°C 89% 11.0 mph ENE17.7 kmh ENE 8.1 mph13.0 kmh 29.88 in1011.9 mb - 0.00 in0.0 mm 0.00 in0.0 mm
05:02 AM 42.1°F5.6°C 38.8°F3.8°C 88% 10.1 mph NE16.3 kmh NE 10.1 mph16.3 kmh 29.87 in1011.5 mb - 0.00 in0.0 mm 0.00 in0.0 mm
04:57 AM 42.1°F5.6°C 38.8°F3.8°C 88% 10.1 mph E16.3 kmh E 11.0 mph17.7 kmh 29.87 in1011.5 mb - 0.00 in0.0 mm 0.00 in0.0 mm
04:52 AM 42.3°F5.7°C 39.0°F3.9°C 88% 10.1 mph E16.3 kmh E 16.1 mph25.9 kmh 29.87 in1011.5 mb - 0.00 in0.0 mm 0.00 in0.0 mm
04:47 AM 42.3°F5.7°C 39.0°F3.9°C 88% 11.0 mph ENE17.7 kmh ENE 4.9 mph7.9 kmh 29.88 in1011.9 mb - 0.00 in0.0 mm 0.00 in0.0 mm
04:42 AM 42.3°F5.7°C 39.0°F3.9°C 88% 10.1 mph ENE16.3 kmh ENE 12.1 mph19.5 kmh 29.87 in1011.5 mb - 0.00 in0.0 mm 0.00 in0.0 mm
04:37 AM 42.3°F5.7°C 39.0°F3.9°C 88% 10.1 mph NE16.3 kmh NE 14.1 mph22.7 kmh 29.87 in1011.5 mb - 0.00 in0.0 mm 0.00 in0.0 mm
04:32 AM 42.4°F5.8°C 39.2°F4.0°C 88% 8.9 mph ENE14.3 kmh ENE 10.1 mph16.3 kmh 29.87 in1011.5 mb - 0.00 in0.0 mm 0.00 in0.0 mm
04:27 AM 42.4°F5.8°C 39.2°F4.0°C 88% 8.9 mph NE14.3 kmh NE 15.0 mph24.1 kmh 29.87 in1011.5 mb - 0.00 in0.0 mm 0.00 in0.0 mm
04:22 AM 42.6°F5.9°C 39.4°F4.1°C 88% 10.1 mph E16.3 kmh E 8.9 mph14.3 kmh 29.87 in1011.5 mb - 0.00 in0.0 mm 0.00 in0.0 mm
04:17 AM 42.6°F5.9°C 39.4°F4.1°C 88% 10.1 mph E16.3 kmh E 13.0 mph20.9 kmh 29.87 in1011.5 mb - 0.00 in0.0 mm 0.00 in0.0 mm
04:12 AM 42.6°F5.9°C 39.4°F4.1°C 88% 10.1 mph NE16.3 kmh NE 11.0 mph17.7 kmh 29.87 in1011.5 mb - 0.00 in0.0 mm 0.00 in0.0 mm
04:07 AM 42.6°F5.9°C 39.4°F4.1°C 88% 11.0 mph ENE17.7 kmh ENE 8.9 mph14.3 kmh 29.87 in1011.5 mb - 0.00 in0.0 mm 0.00 in0.0 mm
04:02 AM 42.6°F5.9°C 39.4°F4.1°C 88% 11.0 mph NE17.7 kmh NE 12.1 mph19.5 kmh 29.87 in1011.5 mb - 0.00 in0.0 mm 0.00 in0.0 mm
03:57 AM 42.6°F5.9°C 39.4°F4.1°C 88% 10.1 mph ENE16.3 kmh ENE 8.1 mph13.0 kmh 29.87 in1011.5 mb - 0.00 in0.0 mm 0.00 in0.0 mm
03:52 AM 42.6°F5.9°C 39.4°F4.1°C 88% 10.1 mph ENE16.3 kmh ENE 14.1 mph22.7 kmh 29.87 in1011.5 mb - 0.00 in0.0 mm 0.00 in0.0 mm
03:47 AM 43.0°F6.1°C 39.4°F4.1°C 87% 13.0 mph E20.9 kmh E 13.0 mph20.9 kmh 29.86 in1011.2 mb - 0.00 in0.0 mm 0.00 in0.0 mm
03:42 AM 43.0°F6.1°C 39.4°F4.1°C 87% 15.0 mph ENE24.1 kmh ENE 19.0 mph30.6 kmh 29.87 in1011.5 mb - 0.00 in0.0 mm 0.00 in0.0 mm
03:37 AM 43.0°F6.1°C 39.4°F4.1°C 87% 14.1 mph ENE22.7 kmh ENE 8.1 mph13.0 kmh 29.86 in1011.2 mb - 0.00 in0.0 mm 0.00 in0.0 mm
03:32 AM 43.0°F6.1°C 39.4°F4.1°C 87% 11.0 mph NE17.7 kmh NE 19.9 mph32.0 kmh 29.86 in1011.2 mb - 0.00 in0.0 mm 0.00 in0.0 mm
03:27 AM 43.2°F6.2°C 39.2°F4.0°C 86% 12.1 mph ENE19.5 kmh ENE 16.1 mph25.9 kmh 29.87 in1011.5 mb - 0.00 in0.0 mm 0.00 in0.0 mm
03:22 AM 43.2°F6.2°C 39.2°F4.0°C 86% 12.1 mph ENE19.5 kmh ENE 11.0 mph17.7 kmh 29.86 in1011.2 mb - 0.00 in0.0 mm 0.00 in0.0 mm
03:17 AM 43.3°F6.3°C 39.4°F4.1°C 86% 11.0 mph E17.7 kmh E 19.0 mph30.6 kmh 29.86 in1011.2 mb - 0.00 in0.0 mm 0.00 in0.0 mm
03:12 AM 43.3°F6.3°C 39.4°F4.1°C 86% 11.0 mph NE17.7 kmh NE 16.1 mph25.9 kmh 29.86 in1011.2 mb - 0.00 in0.0 mm 0.00 in0.0 mm
03:07 AM 43.3°F6.3°C 39.4°F4.1°C 86% 11.0 mph E17.7 kmh E 4.0 mph6.4 kmh 29.86 in1011.2 mb - 0.00 in0.0 mm 0.00 in0.0 mm
03:02 AM 43.5°F6.4°C 39.4°F4.1°C 85% 11.0 mph NE17.7 kmh NE 10.1 mph16.3 kmh 29.86 in1011.2 mb - 0.00 in0.0 mm 0.00 in0.0 mm
02:57 AM 43.7°F6.5°C 39.6°F4.2°C 85% 11.0 mph ESE17.7 kmh ESE 8.1 mph13.0 kmh 29.86 in1011.2 mb - 0.00 in0.0 mm 0.00 in0.0 mm
02:52 AM 43.7°F6.5°C 39.6°F4.2°C 85% 12.1 mph E19.5 kmh E 8.9 mph14.3 kmh 29.86 in1011.2 mb - 0.00 in0.0 mm 0.00 in0.0 mm
02:47 AM 43.9°F6.6°C 39.7°F4.3°C 85% 12.1 mph E19.5 kmh E 8.9 mph14.3 kmh 29.86 in1011.2 mb - 0.00 in0.0 mm 0.00 in0.0 mm
02:42 AM 43.9°F6.6°C 39.7°F4.3°C 85% 10.1 mph ENE16.3 kmh ENE 14.1 mph22.7 kmh 29.86 in1011.2 mb - 0.00 in0.0 mm 0.00 in0.0 mm
02:37 AM 44.1°F6.7°C 39.9°F4.4°C 85% 12.1 mph E19.5 kmh E 12.1 mph19.5 kmh 29.86 in1011.2 mb - 0.00 in0.0 mm 0.00 in0.0 mm
02:32 AM 44.1°F6.7°C 39.6°F4.2°C 84% 14.1 mph E22.7 kmh E 17.9 mph28.8 kmh 29.86 in1011.2 mb - 0.00 in0.0 mm 0.00 in0.0 mm
02:27 AM 44.1°F6.7°C 39.6°F4.2°C 84% 15.0 mph SE24.1 kmh SE 16.1 mph25.9 kmh 29.86 in1011.2 mb - 0.00 in0.0 mm 0.00 in0.0 mm
02:22 AM 44.1°F6.7°C 39.6°F4.2°C 84% 13.0 mph ESE20.9 kmh ESE 19.0 mph30.6 kmh 29.86 in1011.2 mb - 0.00 in0.0 mm 0.00 in0.0 mm
02:17 AM 44.2°F6.8°C 39.7°F4.3°C 84% 12.1 mph NE19.5 kmh NE 6.0 mph9.7 kmh 29.86 in1011.2 mb - 0.00 in0.0 mm 0.00 in0.0 mm
02:12 AM 44.2°F6.8°C 39.7°F4.3°C 84% 14.1 mph E22.7 kmh E 13.0 mph20.9 kmh 29.85 in1010.8 mb - 0.00 in0.0 mm 0.00 in0.0 mm
02:07 AM 44.2°F6.8°C 39.7°F4.3°C 84% 15.0 mph NE24.1 kmh NE 16.1 mph25.9 kmh 29.85 in1010.8 mb - 0.00 in0.0 mm 0.00 in0.0 mm
02:02 AM 44.2°F6.8°C 39.7°F4.3°C 84% 15.0 mph E24.1 kmh E 15.0 mph24.1 kmh 29.85 in1010.8 mb - 0.00 in0.0 mm 0.00 in0.0 mm
01:57 AM 44.2°F6.8°C 39.7°F4.3°C 84% 14.1 mph ENE22.7 kmh ENE 15.0 mph24.1 kmh 29.85 in1010.8 mb - 0.00 in0.0 mm 0.00 in0.0 mm
01:52 AM 44.2°F6.8°C 39.7°F4.3°C 84% 13.0 mph ENE20.9 kmh ENE 14.1 mph22.7 kmh 29.85 in1010.8 mb - 0.00 in0.0 mm 0.00 in0.0 mm
01:47 AM 44.4°F6.9°C 39.9°F4.4°C 84% 14.1 mph E22.7 kmh E 19.9 mph32.0 kmh 29.85 in1010.8 mb - 0.00 in0.0 mm 0.00 in0.0 mm
01:42 AM 44.4°F6.9°C 39.9°F4.4°C 84% 14.1 mph NE22.7 kmh NE 15.0 mph24.1 kmh 29.85 in1010.8 mb - 0.00 in0.0 mm 0.00 in0.0 mm
01:37 AM 44.4°F6.9°C 39.9°F4.4°C 84% 14.1 mph ENE22.7 kmh ENE 14.1 mph22.7 kmh 29.85 in1010.8 mb - 0.00 in0.0 mm 0.00 in0.0 mm
01:32 AM 44.6°F7.0°C 40.1°F4.5°C 84% 12.1 mph NE19.5 kmh NE 15.0 mph24.1 kmh 29.85 in1010.8 mb - 0.00 in0.0 mm 0.00 in0.0 mm
01:27 AM 44.6°F7.0°C 40.1°F4.5°C 84% 11.0 mph NE17.7 kmh NE 11.0 mph17.7 kmh 29.85 in1010.8 mb - 0.00 in0.0 mm 0.00 in0.0 mm
01:22 AM 44.6°F7.0°C 40.1°F4.5°C 84% 10.1 mph ENE16.3 kmh ENE 4.0 mph6.4 kmh 29.85 in1010.8 mb - 0.00 in0.0 mm 0.00 in0.0 mm
01:17 AM 44.4°F6.9°C 39.9°F4.4°C 84% 8.9 mph NE14.3 kmh NE 8.9 mph14.3 kmh 29.85 in1010.8 mb - 0.00 in0.0 mm 0.00 in0.0 mm
01:12 AM 44.4°F6.9°C 40.3°F4.6°C 85% 10.1 mph NE16.3 kmh NE 16.1 mph25.9 kmh 29.85 in1010.8 mb - 0.00 in0.0 mm 0.00 in0.0 mm
01:07 AM 44.4°F6.9°C 40.3°F4.6°C 85% 10.1 mph E16.3 kmh E 12.1 mph19.5 kmh 29.85 in1010.8 mb - 0.00 in0.0 mm 0.00 in0.0 mm
01:02 AM 44.2°F6.8°C 40.1°F4.5°C 85% 8.9 mph E14.3 kmh E 8.1 mph13.0 kmh 29.85 in1010.8 mb - 0.00 in0.0 mm 0.00 in0.0 mm
12:57 AM 44.2°F6.8°C 40.1°F4.5°C 85% 8.9 mph 14.3 kmh 8.9 mph14.3 kmh 29.85 in1010.8 mb - 0.00 in0.0 mm 0.00 in0.0 mm
12:52 AM 44.2°F6.8°C 40.1°F4.5°C 85% 10.1 mph ENE16.3 kmh ENE 8.9 mph14.3 kmh 29.85 in1010.8 mb - 0.00 in0.0 mm 0.00 in0.0 mm
12:47 AM 44.2°F6.8°C 40.1°F4.5°C 85% 8.9 mph NE14.3 kmh NE 8.9 mph14.3 kmh 29.85 in1010.8 mb - 0.00 in0.0 mm 0.00 in0.0 mm
12:42 AM 44.1°F6.7°C 39.9°F4.4°C 85% 6.9 mph E11.1 kmh E 8.9 mph14.3 kmh 29.85 in1010.8 mb - 0.00 in0.0 mm 0.00 in0.0 mm
12:37 AM 44.1°F6.7°C 39.9°F4.4°C 85% 6.9 mph NE11.1 kmh NE 6.0 mph9.7 kmh 29.85 in1010.8 mb - 0.00 in0.0 mm 0.00 in0.0 mm
12:32 AM 44.1°F6.7°C 39.9°F4.4°C 85% 8.1 mph ENE13.0 kmh ENE 2.9 mph4.7 kmh 29.84 in1010.5 mb - 0.00 in0.0 mm 0.00 in0.0 mm
12:27 AM 44.2°F6.8°C 40.1°F4.5°C 85% 8.1 mph E13.0 kmh E 4.9 mph7.9 kmh 29.84 in1010.5 mb - 0.00 in0.0 mm 0.00 in0.0 mm
12:22 AM 44.2°F6.8°C 39.7°F4.3°C 84% 8.1 mph ENE13.0 kmh ENE 4.0 mph6.4 kmh 29.84 in1010.5 mb - 0.00 in0.0 mm 0.00 in0.0 mm
12:17 AM 44.4°F6.9°C 39.9°F4.4°C 84% 8.9 mph E14.3 kmh E 11.0 mph17.7 kmh 29.84 in1010.5 mb - 0.00 in0.0 mm 0.00 in0.0 mm
12:12 AM 44.4°F6.9°C 39.9°F4.4°C 84% 8.9 mph E14.3 kmh E 6.9 mph11.1 kmh 29.84 in1010.5 mb - 0.00 in0.0 mm 0.00 in0.0 mm
12:07 AM 44.8°F7.1°C 39.9°F4.4°C 83% 10.1 mph E16.3 kmh E 6.9 mph11.1 kmh 29.84 in1010.5 mb - 0.00 in0.0 mm 0.00 in0.0 mm
12:02 AM 44.8°F7.1°C 39.9°F4.4°C 83% 10.1 mph NE16.3 kmh NE 12.1 mph19.5 kmh 29.83 in1010.2 mb - 0.00 in0.0 mm 0.09 in2.3 mm